createdAt,value
2018-03-17T00:01:45.283Z,77.48
2018-03-17T00:04:11.894Z,77.42
2018-03-17T00:06:38.475Z,77.75
2018-03-17T00:09:05.046Z,77.42
2018-03-17T00:11:31.675Z,77.44
2018-03-17T00:13:59.008Z,77.36
2018-03-17T00:16:25.573Z,77.49
2018-03-17T00:18:52.907Z,77.37
2018-03-17T00:21:19.468Z,76.81
2018-03-17T00:23:46.063Z,76.62
2018-03-17T00:26:12.639Z,76.41
2018-03-17T00:28:39.955Z,76.76
2018-03-17T00:31:06.558Z,76.81
2018-03-17T00:33:33.151Z,76.28
2018-03-17T00:36:00.579Z,76.58
2018-03-17T00:38:27.235Z,76.92
2018-03-17T00:40:53.803Z,76.87
2018-03-17T00:43:20.381Z,76.71
2018-03-17T00:45:46.974Z,76.33
2018-03-17T00:48:13.601Z,76.23
2018-03-17T00:50:40.906Z,76.75
2018-03-17T00:53:07.481Z,76.86
2018-03-17T00:55:34.766Z,77.48
2018-03-17T00:58:01.443Z,77.76
2018-03-17T01:00:28.035Z,78.23
2018-03-17T01:02:54.590Z,78.26
2018-03-17T01:05:21.235Z,78.31
2018-03-17T01:07:47.876Z,78.23
2018-03-17T01:10:14.503Z,77.91
2018-03-17T01:12:41.081Z,77.17
2018-03-17T01:15:07.654Z,77.53
2018-03-17T01:17:34.234Z,77.94
2018-03-17T01:20:01.595Z,77.40
2018-03-17T01:22:28.959Z,77.13
2018-03-17T01:24:55.534Z,78.29
2018-03-17T01:27:22.126Z,78.37
2018-03-17T01:29:48.839Z,78.43
2018-03-17T01:32:15.413Z,78.91
2018-03-17T01:34:41.979Z,79.15
2018-03-17T01:37:08.585Z,78.60
2018-03-17T01:39:35.895Z,78.10
2018-03-17T01:42:02.527Z,78.08
2018-03-17T01:44:29.127Z,78.67
2018-03-17T01:46:56.487Z,78.92
2018-03-17T01:49:23.079Z,78.28
2018-03-17T01:51:49.669Z,78.53
2018-03-17T01:54:30.630Z,78.34
2018-03-17T01:56:57.993Z,78.37
2018-03-17T01:59:26.367Z,78.64
2018-03-17T02:01:52.922Z,78.81
2018-03-17T02:04:19.478Z,78.67
2018-03-17T02:06:46.152Z,78.36
2018-03-17T02:09:12.746Z,78.29
2018-03-17T02:11:39.323Z,78.12
2018-03-17T02:14:05.926Z,77.81
2018-03-17T02:16:32.494Z,77.76
2018-03-17T02:18:59.099Z,77.74
2018-03-17T02:21:26.685Z,77.58
2018-03-17T02:23:53.298Z,77.06
2018-03-17T02:26:19.878Z,76.56
2018-03-17T02:28:47.230Z,77.01
2018-03-17T02:31:14.584Z,77.35
2018-03-17T02:33:41.193Z,77.57
2018-03-17T02:36:07.766Z,77.39
2018-03-17T02:38:34.567Z,77.35
2018-03-17T02:41:01.159Z,77.10
2018-03-17T02:43:27.730Z,77.15
2018-03-17T02:45:54.307Z,77.50
2018-03-17T02:48:21.627Z,76.66
2018-03-17T02:50:48.221Z,77.20
2018-03-17T02:53:14.787Z,77.33
2018-03-17T02:55:41.379Z,77.68
2018-03-17T02:58:08.675Z,77.35
2018-03-17T03:00:35.291Z,77.48
2018-03-17T03:03:01.888Z,77.39
2018-03-17T03:05:29.217Z,77.44
2018-03-17T03:07:56.659Z,77.30
2018-03-17T03:10:23.266Z,77.18
2018-03-17T03:12:49.895Z,77.00
2018-03-17T03:15:16.459Z,76.99
2018-03-17T03:17:43.242Z,77.08
2018-03-17T03:20:09.870Z,77.01
2018-03-17T03:22:36.418Z,77.14
2018-03-17T03:25:03.834Z,77.11
2018-03-17T03:27:30.460Z,77.07
2018-03-17T03:29:57.656Z,77.08
2018-03-17T03:32:24.978Z,77.22
2018-03-17T03:34:51.560Z,77.25
2018-03-17T03:37:18.852Z,77.08
2018-03-17T03:39:46.302Z,77.12
2018-03-17T03:42:13.608Z,76.76
2018-03-17T03:44:40.286Z,77.05
2018-03-17T03:47:06.862Z,77.14
2018-03-17T03:49:33.458Z,76.51
2018-03-17T03:52:00.824Z,76.53
2018-03-17T03:54:27.413Z,77.23
2018-03-17T03:56:54.055Z,77.81
2018-03-17T03:59:21.658Z,78.31
2018-03-17T04:01:48.410Z,78.36
2018-03-17T04:04:14.989Z,78.38
2018-03-17T04:06:41.554Z,78.48
2018-03-17T04:09:08.630Z,78.76
2018-03-17T04:11:36.115Z,78.53
2018-03-17T04:14:02.716Z,78.45
2018-03-17T04:16:29.310Z,78.58
2018-03-17T04:18:55.906Z,79.11
2018-03-17T04:21:22.595Z,79.90
2018-03-17T04:23:50.447Z,80.42
2018-03-17T04:26:17.044Z,80.66
2018-03-17T04:28:43.738Z,80.81
2018-03-17T04:31:11.053Z,81.01
2018-03-17T04:33:37.622Z,81.12
2018-03-17T04:36:04.948Z,81.36
2018-03-17T04:38:31.527Z,81.51
2018-03-17T04:40:59.058Z,81.47
2018-03-17T04:43:26.610Z,81.67
2018-03-17T04:45:54.540Z,81.39
2018-03-17T04:48:21.131Z,81.12
2018-03-17T04:50:48.079Z,81.31
2018-03-17T04:53:15.376Z,81.60
2018-03-17T04:55:41.986Z,81.69
2018-03-17T04:58:09.304Z,81.88
2018-03-17T05:00:38.014Z,82.24
2018-03-17T05:03:05.286Z,82.21
2018-03-17T05:05:32.995Z,82.25
2018-03-17T05:08:00.347Z,81.95
2018-03-17T05:10:26.987Z,81.91
2018-03-17T05:12:53.952Z,82.14
2018-03-17T05:15:21.246Z,82.28
2018-03-17T05:17:47.820Z,82.53
2018-03-17T05:20:14.373Z,82.86
2018-03-17T05:22:41.033Z,83.03
2018-03-17T05:25:08.347Z,83.32
2018-03-17T05:27:34.974Z,83.55
2018-03-17T05:30:01.636Z,83.66
2018-03-17T05:32:28.940Z,83.79
2018-03-17T05:34:55.927Z,84.09
2018-03-17T05:37:22.530Z,84.18
2018-03-17T05:39:49.146Z,84.18
2018-03-17T05:42:15.765Z,84.35
2018-03-17T05:44:43.203Z,84.38
2018-03-17T05:47:09.801Z,84.23
2018-03-17T05:49:36.403Z,84.30
2018-03-17T05:52:03.015Z,84.48
2018-03-17T05:54:29.609Z,84.61
2018-03-17T05:56:56.181Z,84.71
2018-03-17T05:59:22.779Z,84.44
2018-03-17T06:01:49.494Z,84.29
2018-03-17T06:04:16.111Z,84.59
2018-03-17T06:06:42.693Z,84.71
2018-03-17T06:09:09.527Z,84.76
2018-03-17T06:11:36.152Z,84.81
2018-03-17T06:14:02.789Z,85.02
2018-03-17T06:16:31.043Z,84.98
2018-03-17T06:18:57.627Z,85.10
2018-03-17T06:21:24.974Z,85.17
2018-03-17T06:23:51.542Z,85.18
2018-03-17T06:26:18.137Z,85.61
2018-03-17T06:28:44.743Z,85.67
2018-03-17T06:31:12.047Z,85.27
2018-03-17T06:33:38.643Z,85.07
2018-03-17T06:36:05.272Z,85.31
2018-03-17T06:38:31.845Z,85.51
2018-03-17T06:40:58.506Z,85.48
2018-03-17T06:43:25.887Z,85.70
2018-03-17T06:45:53.302Z,85.61
2018-03-17T06:48:19.868Z,85.64
2018-03-17T06:50:46.447Z,85.66
2018-03-17T06:53:13.224Z,85.88
2018-03-17T06:55:39.810Z,85.84
2018-03-17T06:58:06.387Z,85.72
2018-03-17T07:00:33.024Z,85.83
2018-03-17T07:02:59.596Z,85.85
2018-03-17T07:05:26.180Z,85.83
2018-03-17T07:07:52.792Z,85.86
2018-03-17T07:10:20.099Z,86.15
2018-03-17T07:12:46.675Z,86.39
2018-03-17T07:15:13.310Z,86.38
2018-03-17T07:17:40.648Z,86.78
2018-03-17T07:20:07.242Z,87.06
2018-03-17T07:22:33.840Z,87.23
2018-03-17T07:25:00.583Z,87.40
2018-03-17T07:27:27.933Z,87.50
2018-03-17T07:29:54.587Z,87.53
2018-03-17T07:32:21.260Z,87.45
2018-03-17T07:34:47.875Z,87.16
2018-03-17T07:37:14.542Z,87.07
2018-03-17T07:39:41.814Z,87.03
2018-03-17T07:42:08.402Z,87.06
2018-03-17T07:44:35.730Z,86.59
2018-03-17T07:47:02.611Z,86.31
2018-03-17T07:49:29.207Z,86.77
2018-03-17T07:51:56.598Z,86.75
2018-03-17T07:54:23.188Z,86.68
2018-03-17T07:56:49.764Z,86.42
2018-03-17T07:59:16.513Z,86.52
2018-03-17T08:01:43.080Z,86.70
2018-03-17T08:04:09.638Z,86.76
2018-03-17T08:06:36.939Z,86.69
2018-03-17T08:09:04.203Z,86.72
2018-03-17T08:11:30.807Z,86.70
2018-03-17T08:13:57.555Z,86.51
2018-03-17T08:16:24.187Z,86.81
2018-03-17T08:18:50.805Z,86.84
2018-03-17T08:21:17.803Z,86.86
2018-03-17T08:23:44.392Z,87.05
2018-03-17T08:26:10.999Z,87.11
2018-03-17T08:28:38.270Z,87.22
2018-03-17T08:31:04.883Z,87.23
2018-03-17T08:33:31.476Z,87.44
2018-03-17T08:35:58.060Z,87.48
2018-03-17T08:38:24.948Z,87.62
2018-03-17T08:40:51.604Z,87.64
2018-03-17T08:43:18.186Z,87.47
2018-03-17T08:45:44.763Z,87.55
2018-03-17T08:48:11.366Z,87.64
2018-03-17T08:50:37.943Z,87.88
2018-03-17T08:53:04.606Z,88.09
2018-03-17T08:55:31.293Z,88.34
2018-03-17T08:57:57.961Z,88.23
2018-03-17T09:00:25.242Z,88.19
2018-03-17T09:02:51.858Z,88.43
2018-03-17T09:05:18.424Z,88.48
2018-03-17T09:07:45.030Z,88.50
2018-03-17T09:10:11.700Z,88.55
2018-03-17T09:12:38.338Z,88.82
2018-03-17T09:15:04.945Z,89.16
2018-03-17T09:17:31.530Z,89.22
2018-03-17T09:19:58.170Z,89.23
2018-03-17T09:22:26.446Z,89.31
2018-03-17T09:24:53.126Z,89.30
2018-03-17T09:27:19.744Z,89.25
2018-03-17T09:29:46.518Z,89.36
2018-03-17T09:32:13.104Z,89.11
2018-03-17T09:34:40.445Z,89.03
2018-03-17T09:37:07.798Z,89.15
2018-03-17T09:39:34.348Z,89.26
2018-03-17T09:42:00.954Z,89.30
2018-03-17T09:44:27.523Z,89.13
2018-03-17T09:46:55.127Z,89.17
2018-03-17T09:49:21.700Z,89.14
2018-03-17T09:51:48.277Z,89.13
2018-03-17T09:54:14.899Z,89.08
2018-03-17T09:56:41.470Z,88.98
2018-03-17T09:59:08.045Z,89.09
2018-03-17T10:01:34.676Z,89.03
2018-03-17T10:04:02.123Z,89.13
2018-03-17T10:06:28.705Z,89.22
2018-03-17T10:08:55.307Z,89.14
2018-03-17T10:11:22.703Z,89.24
2018-03-17T10:13:49.338Z,89.39
2018-03-17T10:16:15.966Z,89.40
2018-03-17T10:18:42.602Z,89.54
2018-03-17T10:21:10.018Z,89.72
2018-03-17T10:23:36.619Z,89.82
2018-03-17T10:26:03.283Z,89.97
2018-03-17T10:28:30.694Z,89.86
2018-03-17T10:30:58.343Z,89.79
2018-03-17T10:33:25.659Z,89.82
2018-03-17T10:35:55.000Z,89.82
2018-03-17T10:38:21.583Z,89.72
2018-03-17T10:40:48.156Z,89.79
2018-03-17T10:43:15.541Z,89.89
2018-03-17T10:45:42.154Z,90.01
2018-03-17T10:48:08.854Z,90.01
2018-03-17T10:50:35.422Z,90.06
2018-03-17T10:53:03.582Z,90.01
2018-03-17T10:55:30.196Z,90.04
2018-03-17T10:57:56.803Z,89.95
2018-03-17T11:00:26.337Z,89.89
2018-03-17T11:02:52.953Z,90.03
2018-03-17T11:05:19.631Z,90.06
2018-03-17T11:07:46.542Z,90.08
2018-03-17T11:10:13.140Z,90.05
2018-03-17T11:12:40.460Z,89.97
2018-03-17T11:15:07.056Z,90.00
2018-03-17T11:17:33.632Z,89.78
2018-03-17T11:20:00.419Z,89.52
2018-03-17T11:22:27.771Z,89.35
2018-03-17T11:24:55.348Z,89.00
2018-03-17T11:27:22.003Z,89.07
2018-03-17T11:29:48.571Z,88.94
2018-03-17T11:32:15.976Z,89.05
2018-03-17T11:34:43.263Z,88.90
2018-03-17T11:37:09.844Z,88.78
2018-03-17T11:39:36.438Z,88.92
2018-03-17T11:42:03.108Z,89.09
2018-03-17T11:44:29.687Z,89.30
2018-03-17T11:46:56.305Z,89.17
2018-03-17T11:49:22.868Z,88.98
2018-03-17T11:51:49.428Z,89.13
2018-03-17T11:54:16.367Z,89.42
2018-03-17T11:56:43.055Z,89.56
2018-03-17T11:59:09.677Z,89.68
2018-03-17T12:01:37.091Z,89.73
2018-03-17T12:04:03.755Z,89.89
2018-03-17T12:06:30.386Z,89.87
2018-03-17T12:08:57.300Z,89.94
2018-03-17T12:11:23.962Z,90.15
2018-03-17T12:13:50.524Z,89.98
2018-03-17T12:16:17.959Z,89.79
2018-03-17T12:18:44.597Z,89.75
2018-03-17T12:21:11.978Z,89.68
2018-03-17T12:23:38.641Z,89.53
2018-03-17T12:26:05.263Z,89.54
2018-03-17T12:28:31.856Z,89.64
2018-03-17T12:30:58.455Z,89.62
2018-03-17T12:33:25.065Z,89.65
2018-03-17T12:35:51.673Z,89.66
2018-03-17T12:38:18.276Z,89.52
2018-03-17T12:40:44.894Z,89.46
2018-03-17T12:43:11.501Z,89.16
2018-03-17T12:45:38.997Z,89.15
2018-03-17T12:48:05.588Z,89.14
2018-03-17T12:50:32.159Z,89.20
2018-03-17T12:52:58.782Z,89.25
2018-03-17T12:55:26.101Z,88.98
2018-03-17T12:57:52.761Z,89.19
2018-03-17T13:00:20.133Z,89.27
2018-03-17T13:02:46.739Z,89.39
2018-03-17T13:05:13.372Z,89.38
2018-03-17T13:07:39.987Z,89.26
2018-03-17T13:10:07.362Z,89.23
2018-03-17T13:12:34.097Z,88.83
2018-03-17T13:15:00.744Z,89.01
2018-03-17T13:17:27.331Z,89.28
2018-03-17T13:19:53.978Z,89.17
2018-03-17T13:22:20.622Z,89.13
2018-03-17T13:24:47.897Z,89.04
2018-03-17T13:30:23.788Z,89.23
2018-03-17T13:32:57.792Z,89.28
2018-03-17T13:35:43.469Z,89.20
2018-03-17T13:38:10.779Z,89.34
2018-03-17T13:40:42.160Z,89.30
2018-03-17T13:43:09.800Z,89.21
2018-03-17T13:45:36.828Z,89.29
2018-03-17T13:48:03.616Z,89.08
2018-03-17T13:50:31.155Z,89.13
2018-03-17T13:52:57.751Z,89.18
2018-03-17T13:55:25.095Z,89.11
2018-03-17T13:57:52.067Z,88.83
2018-03-17T14:00:19.095Z,88.90
2018-03-17T14:02:45.752Z,88.80
2018-03-17T14:05:13.359Z,88.76
2018-03-17T14:07:39.963Z,88.83
2018-03-17T14:10:06.596Z,88.84
2018-03-17T14:12:34.196Z,88.67
2018-03-17T14:15:00.812Z,88.48
2018-03-17T14:17:28.158Z,88.65
2018-03-17T14:19:54.820Z,88.60
2018-03-17T14:22:22.229Z,88.42
2018-03-17T14:24:49.060Z,88.32
2018-03-17T14:27:15.714Z,88.40
2018-03-17T14:29:42.342Z,88.32
2018-03-17T14:32:10.525Z,88.45
2018-03-17T14:34:37.190Z,88.47
2018-03-17T14:37:03.835Z,88.79
2018-03-17T14:39:30.477Z,88.83
2018-03-17T14:41:57.082Z,88.69
2018-03-17T14:44:23.776Z,88.64
2018-03-17T14:46:51.127Z,88.60
2018-03-17T14:49:18.556Z,88.47
2018-03-17T14:51:45.152Z,88.46
2018-03-17T14:54:11.880Z,88.62
2018-03-17T14:56:38.483Z,88.60
2018-03-17T14:59:05.886Z,88.50
2018-03-17T15:01:32.587Z,88.50
2018-03-17T15:03:59.591Z,88.44
2018-03-17T15:06:26.749Z,88.37
2018-03-17T15:08:53.376Z,88.28
2018-03-17T15:11:20.705Z,88.21
2018-03-17T15:13:48.286Z,88.11
2018-03-17T15:16:14.965Z,88.07
2018-03-17T15:18:41.676Z,87.85
2018-03-17T15:21:08.276Z,87.57
2018-03-17T15:23:35.653Z,87.83
2018-03-17T15:26:02.275Z,87.84
2018-03-17T15:28:29.265Z,87.82
2018-03-17T15:30:56.676Z,88.09
2018-03-17T15:33:24.058Z,88.19
2018-03-17T15:35:50.961Z,88.08
2018-03-17T15:38:17.933Z,88.00
2018-03-17T15:40:45.271Z,87.96
2018-03-17T15:43:13.195Z,88.20
2018-03-17T15:45:40.679Z,88.10
2018-03-17T15:48:08.024Z,88.33
2018-03-17T15:50:35.346Z,88.37
2018-03-17T15:53:02.700Z,88.08
2018-03-17T15:55:30.811Z,88.11
2018-03-17T15:57:57.425Z,88.15
2018-03-17T16:00:24.077Z,88.43
2018-03-17T16:02:51.395Z,88.13
2018-03-17T16:05:18.254Z,88.09
2018-03-17T16:07:45.637Z,88.41
2018-03-17T16:10:12.971Z,88.43
2018-03-17T16:12:39.600Z,88.51
2018-03-17T16:15:06.209Z,88.18
2018-03-17T16:17:32.858Z,88.29
2018-03-17T16:20:00.340Z,88.31
2018-03-17T16:22:26.936Z,88.38
2018-03-17T16:24:53.645Z,88.40
2018-03-17T16:27:20.288Z,88.06
2018-03-17T16:29:47.615Z,88.05
2018-03-17T16:32:15.056Z,88.12
2018-03-17T16:34:41.684Z,88.19
2018-03-17T16:37:09.849Z,88.13
2018-03-17T16:39:36.557Z,88.10
2018-03-17T16:42:03.215Z,88.22
2018-03-17T16:44:30.002Z,88.07
2018-03-17T16:46:57.411Z,88.27
2018-03-17T16:49:24.051Z,88.24
2018-03-17T16:51:50.690Z,88.23
2018-03-17T16:54:17.336Z,88.35
2018-03-17T16:56:44.002Z,88.52
2018-03-17T16:59:11.674Z,88.58
2018-03-17T17:01:40.576Z,88.62
2018-03-17T17:04:07.199Z,88.61
2018-03-17T17:06:33.826Z,88.70
2018-03-17T17:09:00.507Z,88.61
2018-03-17T17:11:28.073Z,88.68
2018-03-17T17:13:54.677Z,88.78
2018-03-17T17:16:21.320Z,88.62
2018-03-17T17:18:48.671Z,88.62
2018-03-17T17:21:15.340Z,88.86
2018-03-17T17:23:41.932Z,88.50
2018-03-17T17:26:09.321Z,88.57
2018-03-17T17:28:36.926Z,88.80
2018-03-17T17:31:04.335Z,88.61
2018-03-17T17:33:30.971Z,88.50
2018-03-17T17:35:57.747Z,88.58
2018-03-17T17:38:24.357Z,88.66
2018-03-17T17:40:50.987Z,88.38
2018-03-17T17:43:18.368Z,88.75
2018-03-17T17:45:45.498Z,89.13
2018-03-17T17:48:12.059Z,89.17
2018-03-17T17:50:38.683Z,88.93
2018-03-17T17:53:05.299Z,88.79
2018-03-17T17:55:31.928Z,88.60
2018-03-17T17:57:59.564Z,88.67
2018-03-17T18:00:26.150Z,88.50
2018-03-17T18:02:54.863Z,88.53
2018-03-17T18:05:21.905Z,88.59
2018-03-17T18:07:49.234Z,88.50
2018-03-17T18:10:15.844Z,88.30
2018-03-17T18:12:44.362Z,88.56
2018-03-17T18:15:10.990Z,88.39
2018-03-17T18:17:37.599Z,88.09
2018-03-17T18:20:04.938Z,88.00
2018-03-17T18:22:31.602Z,88.28
2018-03-17T18:24:59.150Z,87.86
2018-03-17T18:27:26.595Z,87.88
2018-03-17T18:29:54.917Z,87.94
2018-03-17T18:32:21.536Z,87.96
2018-03-17T18:34:48.887Z,87.87
2018-03-17T18:37:16.237Z,87.89
2018-03-17T18:39:42.848Z,87.79
2018-03-17T18:42:10.176Z,87.96
2018-03-17T18:44:38.381Z,87.82
2018-03-17T18:47:05.028Z,87.72
2018-03-17T18:49:32.407Z,87.83
2018-03-17T18:51:59.097Z,87.67
2018-03-17T18:54:26.454Z,87.76
2018-03-17T18:56:53.784Z,87.64
2018-03-17T18:59:21.162Z,87.58
2018-03-17T19:01:49.301Z,87.60
2018-03-17T19:04:17.046Z,87.57
2018-03-17T19:06:43.676Z,87.63
2018-03-17T19:09:10.802Z,87.60
2018-03-17T19:11:38.247Z,87.49
2018-03-17T19:14:06.388Z,87.25
2018-03-17T19:16:33.745Z,87.33
2018-03-17T19:19:01.221Z,86.97
2018-03-17T19:21:28.231Z,87.25
2018-03-17T19:23:54.896Z,87.29
2018-03-17T19:26:22.254Z,87.09
2018-03-17T19:28:48.859Z,86.97
2018-03-17T19:31:16.504Z,86.87
2018-03-17T19:33:44.712Z,87.11
2018-03-17T19:36:12.028Z,86.95
2018-03-17T19:38:39.007Z,86.68
2018-03-17T19:41:06.489Z,86.77
2018-03-17T19:43:33.092Z,86.83
2018-03-17T19:46:00.507Z,86.81
2018-03-17T19:48:27.903Z,86.48
2018-03-17T19:50:55.664Z,86.46
2018-03-17T19:53:22.996Z,86.55
2018-03-17T19:55:50.409Z,86.58
2018-03-17T19:58:19.352Z,86.45
2018-03-17T20:00:46.734Z,86.51
2018-03-17T20:03:14.160Z,86.37
2018-03-17T20:05:42.054Z,86.63
2018-03-17T20:08:09.628Z,86.72
2018-03-17T20:10:37.728Z,86.61
2018-03-17T20:13:05.091Z,86.58
2018-03-17T20:15:34.101Z,86.49
2018-03-17T20:18:02.410Z,86.71
2018-03-17T20:20:30.743Z,86.81
2018-03-17T20:22:58.136Z,86.90
2018-03-17T20:25:25.528Z,87.11
2018-03-17T20:27:52.952Z,86.96
2018-03-17T20:30:21.067Z,86.56
2018-03-17T20:32:47.705Z,86.71
2018-03-17T20:35:14.294Z,86.78
2018-03-17T20:37:42.508Z,86.79
2018-03-17T20:40:09.882Z,86.75
2018-03-17T20:42:37.839Z,86.83
2018-03-17T20:45:06.158Z,86.80
2018-03-17T20:47:33.559Z,86.75
2018-03-17T20:50:01.006Z,86.92
2018-03-17T20:52:28.394Z,86.82
2018-03-17T20:54:55.362Z,87.02
2018-03-17T20:57:22.734Z,86.92
2018-03-17T20:59:51.048Z,86.92
2018-03-17T21:02:18.884Z,86.90
2018-03-17T21:04:46.351Z,86.40
2018-03-17T21:07:13.742Z,86.28
2018-03-17T21:09:40.711Z,86.18
2018-03-17T21:12:08.580Z,86.47
2018-03-17T21:14:35.968Z,86.14
2018-03-17T21:17:03.325Z,86.14
2018-03-17T21:19:30.679Z,86.26
2018-03-17T21:21:58.490Z,86.29
2018-03-17T21:24:26.113Z,86.27
2018-03-17T21:26:53.483Z,86.13
2018-03-17T21:29:20.816Z,86.08
2018-03-17T21:31:48.682Z,86.11
2018-03-17T21:34:16.071Z,85.96
2018-03-17T21:36:43.459Z,86.10
2018-03-17T21:39:11.406Z,86.26
2018-03-17T21:41:39.138Z,86.26
2018-03-17T21:44:06.470Z,86.13
2018-03-17T21:46:33.849Z,86.01
2018-03-17T21:49:01.485Z,86.08
2018-03-17T21:51:28.846Z,85.99
2018-03-17T21:53:56.210Z,85.69
2018-03-17T21:56:23.564Z,85.61
2018-03-17T21:58:50.964Z,85.61
2018-03-17T22:01:18.285Z,85.80
2018-03-17T22:03:45.730Z,85.61
2018-03-17T22:06:12.327Z,85.97
2018-03-17T22:08:38.935Z,85.68
2018-03-17T22:11:06.275Z,85.77
2018-03-17T22:13:33.338Z,85.62
2018-03-17T22:16:00.687Z,85.64
2018-03-17T22:18:27.619Z,85.62
2018-03-17T22:20:54.991Z,85.27
2018-03-17T22:23:22.335Z,85.75
2018-03-17T22:25:49.663Z,85.64
2018-03-17T22:28:16.671Z,85.56
2018-03-17T22:30:44.055Z,85.26
2018-03-17T22:33:11.754Z,85.21
2018-03-17T22:35:39.152Z,85.64
2018-03-17T22:38:06.461Z,85.72
2018-03-17T22:40:33.436Z,85.20
2018-03-17T22:43:01.361Z,85.14
2018-03-17T22:45:30.063Z,85.12
2018-03-17T22:47:57.407Z,85.37
2018-03-17T22:50:24.630Z,85.57
2018-03-17T22:52:51.598Z,85.28
2018-03-17T22:55:19.739Z,85.42
2018-03-17T22:57:47.702Z,85.23
2018-03-17T23:00:15.075Z,85.07
2018-03-17T23:02:42.369Z,85.44
2018-03-17T23:05:09.722Z,85.57
2018-03-17T23:07:37.078Z,85.56
2018-03-17T23:10:05.434Z,85.43
2018-03-17T23:12:34.153Z,85.41
2018-03-17T23:15:01.531Z,85.64
2018-03-17T23:17:28.951Z,85.72
2018-03-17T23:19:55.946Z,85.47
2018-03-17T23:22:23.267Z,85.65
2018-03-17T23:24:50.582Z,85.68
2018-03-17T23:27:18.118Z,85.53
2018-03-17T23:29:45.558Z,85.46
2018-03-17T23:32:12.899Z,85.55
2018-03-17T23:34:41.298Z,85.65
2018-03-17T23:37:08.771Z,85.03
2018-03-17T23:39:36.175Z,85.17
2018-03-17T23:42:04.586Z,85.08
2018-03-17T23:44:32.154Z,84.40
2018-03-17T23:46:59.547Z,84.52
2018-03-17T23:49:27.935Z,84.93
2018-03-17T23:51:55.375Z,84.79
2018-03-17T23:54:23.458Z,84.91
2018-03-17T23:56:50.828Z,85.04
2018-03-17T23:59:18.182Z,84.52
